createdAt,value
2022-09-01T00:00:27.449Z,17.84
2022-09-01T00:01:27.376Z,17.84
2022-09-01T00:02:27.357Z,17.94
2022-09-01T00:03:27.223Z,17.55
2022-09-01T00:04:27.359Z,17.55
2022-09-01T00:05:27.078Z,17.74
2022-09-01T00:06:26.993Z,17.17
2022-09-01T00:07:26.915Z,17.46
2022-09-01T00:08:26.835Z,17.27
2022-09-01T00:09:26.756Z,17.84
2022-09-01T00:10:26.679Z,17.27
2022-09-01T00:11:26.606Z,17.27
2022-09-01T00:12:26.529Z,17.36
2022-09-01T00:13:26.450Z,17.07
2022-09-01T00:14:30.756Z,17.17
2022-09-01T00:15:26.310Z,16.98
2022-09-01T00:16:26.221Z,17.55
2022-09-01T00:17:26.147Z,17.07
2022-09-01T00:18:26.063Z,17.74
2022-09-01T00:19:25.989Z,17.17
2022-09-01T00:20:25.914Z,17.27
2022-09-01T00:21:25.837Z,17.27
2022-09-01T00:22:25.763Z,17.27
2022-09-01T00:23:25.686Z,17.74
2022-09-01T00:24:25.610Z,17.74
2022-09-01T00:25:25.530Z,17.84
2022-09-01T00:26:25.451Z,18.90
2022-09-01T00:27:30.538Z,19.28
2022-09-01T00:28:29.239Z,18.90
2022-09-01T00:29:25.225Z,19.28
2022-09-01T00:30:25.153Z,18.32
2022-09-01T00:31:25.120Z,18.32
2022-09-01T00:32:24.992Z,18.42
2022-09-01T00:33:24.920Z,18.32
2022-09-01T00:34:24.837Z,17.94
2022-09-01T00:35:24.758Z,17.36
2022-09-01T00:36:24.685Z,17.65
2022-09-01T00:37:24.614Z,17.94
2022-09-01T00:38:24.538Z,17.64
2022-09-01T00:39:24.452Z,16.78
2022-09-01T00:40:24.445Z,16.11
2022-09-01T00:41:24.301Z,16.39
2022-09-01T00:42:24.223Z,16.31
2022-09-01T00:43:24.152Z,16.58
2022-09-01T00:44:24.366Z,17.07
2022-09-01T00:45:23.996Z,17.17
2022-09-01T00:46:23.968Z,17.46
2022-09-01T00:47:23.839Z,17.55
2022-09-01T00:48:23.761Z,17.27
2022-09-01T00:49:23.686Z,17.74
2022-09-01T00:50:23.607Z,17.83
2022-09-01T00:51:23.530Z,17.64
2022-09-01T00:52:23.453Z,17.84
2022-09-01T00:53:23.376Z,17.07
2022-09-01T00:54:23.303Z,17.65
2022-09-01T00:55:23.224Z,17.74
2022-09-01T00:56:23.150Z,17.84
2022-09-01T00:57:23.076Z,17.83
2022-09-01T00:58:23.165Z,17.46
2022-09-01T00:59:22.918Z,17.83
2022-09-01T01:00:22.839Z,17.93
2022-09-01T01:01:22.801Z,17.83
2022-09-01T01:02:22.736Z,17.65
2022-09-01T01:03:22.610Z,17.64
2022-09-01T01:04:22.550Z,17.83
2022-09-01T01:05:22.455Z,17.25
2022-09-01T01:06:22.379Z,17.25
2022-09-01T01:07:22.301Z,17.25
2022-09-01T01:08:22.228Z,17.25
2022-09-01T01:09:22.148Z,17.07
2022-09-01T01:10:22.075Z,17.93
2022-09-01T01:11:21.993Z,18.12
2022-09-01T01:12:21.917Z,18.12
2022-09-01T01:13:21.838Z,17.64
2022-09-01T01:14:21.764Z,17.74
2022-09-01T01:15:21.704Z,17.25
2022-09-01T01:16:21.626Z,17.35
2022-09-01T01:17:21.536Z,17.35
2022-09-01T01:18:23.211Z,17.16
2022-09-01T01:19:21.381Z,17.16
2022-09-01T01:20:21.307Z,17.16
2022-09-01T01:21:21.225Z,17.27
2022-09-01T01:22:21.150Z,17.74
2022-09-01T01:23:21.073Z,17.55
2022-09-01T01:24:21.008Z,17.27
2022-09-01T01:25:20.921Z,18.31
2022-09-01T01:26:20.840Z,17.93
2022-09-01T01:27:20.765Z,17.83
2022-09-01T01:28:21.109Z,17.74
2022-09-01T01:29:20.612Z,17.83
2022-09-01T01:30:20.534Z,17.83
2022-09-01T01:31:20.537Z,18.60
2022-09-01T01:32:20.384Z,19.18
2022-09-01T01:33:20.301Z,19.94
2022-09-01T01:34:20.228Z,20.23
2022-09-01T01:35:20.150Z,20.04
2022-09-01T01:36:20.081Z,20.42
2022-09-01T01:37:20.001Z,20.14
2022-09-01T01:38:20.054Z,19.27
2022-09-01T01:39:19.843Z,18.41
2022-09-01T01:40:19.836Z,18.31
2022-09-01T01:41:19.697Z,18.22
2022-09-01T01:42:19.612Z,17.55
2022-09-01T01:43:19.529Z,17.83
2022-09-01T01:44:19.459Z,17.74
2022-09-01T01:45:19.377Z,18.22
2022-09-01T01:46:19.420Z,18.02
2022-09-01T01:47:19.229Z,18.12
2022-09-01T01:48:19.324Z,18.60
2022-09-01T01:49:19.071Z,18.31
2022-09-01T01:50:18.994Z,18.41
2022-09-01T01:51:18.921Z,18.41
2022-09-01T01:52:18.841Z,18.41
2022-09-01T01:53:18.768Z,18.41
2022-09-01T01:54:18.686Z,18.12
2022-09-01T01:55:18.614Z,18.12
2022-09-01T01:56:18.531Z,18.22
2022-09-01T01:57:25.626Z,18.02
2022-09-01T01:59:22.306Z,18.41
2022-09-01T02:00:28.721Z,17.93
2022-09-01T02:01:22.191Z,18.02
2022-09-01T02:02:22.094Z,17.83
2022-09-01T02:03:22.000Z,17.93
2022-09-01T02:04:21.897Z,18.51
2022-09-01T02:05:21.822Z,17.83
2022-09-01T02:06:21.742Z,18.60
2022-09-01T02:07:21.667Z,18.12
2022-09-01T02:08:21.594Z,18.02
2022-09-01T02:09:21.516Z,18.31
2022-09-01T02:10:21.435Z,18.41
2022-09-01T02:11:21.368Z,18.31
2022-09-01T02:12:21.280Z,18.60
2022-09-01T02:13:21.202Z,18.22
2022-09-01T02:14:21.127Z,18.79
2022-09-01T02:15:21.053Z,18.70
2022-09-01T02:16:20.985Z,18.22
2022-09-01T02:17:20.895Z,18.22
2022-09-01T02:18:21.031Z,18.79
2022-09-01T02:19:20.748Z,18.89
2022-09-01T02:20:20.666Z,19.08
2022-09-01T02:21:20.604Z,18.98
2022-09-01T02:22:20.515Z,18.79
2022-09-01T02:23:20.432Z,18.98
2022-09-01T02:24:20.361Z,18.89
2022-09-01T02:25:20.283Z,18.02
2022-09-01T02:26:20.203Z,17.93
2022-09-01T02:27:20.128Z,18.12
2022-09-01T02:28:20.255Z,17.93
2022-09-01T02:29:19.974Z,18.41
2022-09-01T02:30:19.898Z,18.02
2022-09-01T02:31:19.816Z,17.16
2022-09-01T02:32:19.742Z,16.78
2022-09-01T02:33:19.669Z,16.58
2022-09-01T02:34:19.591Z,15.92
2022-09-01T02:35:19.512Z,16.20
2022-09-01T02:36:19.479Z,16.49
2022-09-01T02:37:19.354Z,16.30
2022-09-01T02:38:19.376Z,16.97
2022-09-01T02:39:19.208Z,17.25
2022-09-01T02:40:19.164Z,16.97
2022-09-01T02:41:19.051Z,17.07
2022-09-01T02:42:18.973Z,17.55
2022-09-01T02:43:18.896Z,16.39
2022-09-01T02:44:18.823Z,15.53
2022-09-01T02:45:18.738Z,16.11
2022-09-01T02:46:18.696Z,16.49
2022-09-01T02:47:18.584Z,16.20
2022-09-01T02:48:18.780Z,16.39
2022-09-01T02:49:18.435Z,16.30
2022-09-01T02:50:18.361Z,16.58
2022-09-01T02:51:18.280Z,16.68
2022-09-01T02:52:18.207Z,16.68
2022-09-01T02:53:18.127Z,16.58
2022-09-01T02:54:18.046Z,16.58
2022-09-01T02:55:17.971Z,16.11
2022-09-01T02:56:17.896Z,15.53
2022-09-01T02:57:17.821Z,15.15
2022-09-01T02:58:17.794Z,14.86
2022-09-01T02:59:17.665Z,15.15
2022-09-01T03:00:17.594Z,15.53
2022-09-01T03:01:17.564Z,15.25
2022-09-01T03:02:17.433Z,15.44
2022-09-01T03:03:17.366Z,15.15
2022-09-01T03:04:17.296Z,14.67
2022-09-01T03:05:17.201Z,14.09
2022-09-01T03:06:17.129Z,14.38
2022-09-01T03:07:17.056Z,14.28
2022-09-01T03:08:17.040Z,14.00
2022-09-01T03:09:16.894Z,14.28
2022-09-01T03:10:16.817Z,14.00
2022-09-01T03:11:16.740Z,14.28
2022-09-01T03:12:16.662Z,13.90
2022-09-01T03:13:16.583Z,14.00
2022-09-01T03:14:16.516Z,14.09
2022-09-01T03:15:16.437Z,14.19
2022-09-01T03:16:16.433Z,14.00
2022-09-01T03:17:16.279Z,14.48
2022-09-01T03:18:16.322Z,14.19
2022-09-01T03:19:16.123Z,14.58
2022-09-01T03:20:16.053Z,14.09
2022-09-01T03:21:15.968Z,13.90
2022-09-01T03:22:15.893Z,14.19
2022-09-01T03:23:15.817Z,14.48
2022-09-01T03:24:15.736Z,14.86
2022-09-01T03:25:15.662Z,14.86
2022-09-01T03:26:15.581Z,14.76
2022-09-01T03:27:15.509Z,14.48
2022-09-01T03:28:15.455Z,15.15
2022-09-01T03:29:15.356Z,15.34
2022-09-01T03:30:15.278Z,15.25
2022-09-01T03:31:15.233Z,15.44
2022-09-01T03:32:15.191Z,16.20
2022-09-01T03:33:15.051Z,15.92
2022-09-01T03:34:14.975Z,15.63
2022-09-01T03:35:14.894Z,15.63
2022-09-01T03:36:15.487Z,15.44
2022-09-01T03:37:14.738Z,14.38
2022-09-01T03:38:14.657Z,13.71
2022-09-01T03:39:16.798Z,13.42
2022-09-01T03:40:14.557Z,12.65
2022-09-01T03:41:14.427Z,12.27
2022-09-01T03:42:14.353Z,12.37
2022-09-01T03:43:14.279Z,12.27
2022-09-01T03:44:14.193Z,12.75
2022-09-01T03:45:14.121Z,14.09
2022-09-01T03:46:14.094Z,14.76
2022-09-01T03:47:13.975Z,14.38
2022-09-01T03:48:13.893Z,14.28
2022-09-01T03:49:13.814Z,13.81
2022-09-01T03:50:13.735Z,14.48
2022-09-01T03:51:13.658Z,14.58
2022-09-01T03:52:13.583Z,14.58
2022-09-01T03:53:13.510Z,14.09
2022-09-01T03:54:13.427Z,14.19
2022-09-01T03:55:13.351Z,14.67
2022-09-01T03:56:13.269Z,14.76
2022-09-01T03:57:13.947Z,15.44
2022-09-01T03:58:13.121Z,15.53
2022-09-01T03:59:13.042Z,15.44
2022-09-01T04:00:12.963Z,16.39
2022-09-01T04:01:13.872Z,15.81
2022-09-01T04:02:12.845Z,15.44
2022-09-01T04:03:12.736Z,15.82
2022-09-01T04:04:12.658Z,15.63
2022-09-01T04:05:12.581Z,15.62
2022-09-01T04:06:12.504Z,16.01
2022-09-01T04:07:15.515Z,15.34
2022-09-01T04:08:12.424Z,15.72
2022-09-01T04:09:12.280Z,15.25
2022-09-01T04:10:12.194Z,15.63
2022-09-01T04:11:12.119Z,15.05
2022-09-01T04:12:12.037Z,14.85
2022-09-01T04:13:11.957Z,13.99
2022-09-01T04:14:11.889Z,14.47
2022-09-01T04:15:11.809Z,14.95
2022-09-01T04:16:11.776Z,14.76
2022-09-01T04:17:11.650Z,14.66
2022-09-01T04:18:11.656Z,14.66
2022-09-01T04:19:11.499Z,14.47
2022-09-01T04:20:11.426Z,14.37
2022-09-01T04:21:11.348Z,14.37
2022-09-01T04:22:11.268Z,14.66
2022-09-01T04:23:11.195Z,14.28
2022-09-01T04:24:11.112Z,14.67
2022-09-01T04:25:11.034Z,14.76
2022-09-01T04:26:10.957Z,14.85
2022-09-01T04:27:10.887Z,14.95
2022-09-01T04:28:10.802Z,15.33
2022-09-01T04:29:10.729Z,15.05
2022-09-01T04:30:10.652Z,15.05
2022-09-01T04:31:10.702Z,14.47
2022-09-01T04:32:10.496Z,14.37
2022-09-01T04:33:10.418Z,14.47
2022-09-01T04:34:10.339Z,14.76
2022-09-01T04:35:10.261Z,14.66
2022-09-01T04:36:10.186Z,14.76
2022-09-01T04:37:10.128Z,14.47
2022-09-01T04:38:10.035Z,14.47
2022-09-01T04:39:11.898Z,14.85
2022-09-01T04:40:09.946Z,14.47
2022-09-01T04:41:09.803Z,14.28
2022-09-01T04:42:09.722Z,14.86
2022-09-01T04:43:09.650Z,14.76
2022-09-01T04:44:09.573Z,15.05
2022-09-01T04:45:10.830Z,15.34
2022-09-01T04:46:09.461Z,15.44
2022-09-01T04:47:09.346Z,15.34
2022-09-01T04:48:09.262Z,15.34
2022-09-01T04:49:09.182Z,15.53
2022-09-01T04:50:09.108Z,16.30
2022-09-01T04:51:09.029Z,16.78
2022-09-01T04:52:08.957Z,17.16
2022-09-01T04:53:08.872Z,17.93
2022-09-01T04:54:08.802Z,18.02
2022-09-01T04:55:08.725Z,18.22
2022-09-01T04:56:08.649Z,18.22
2022-09-01T04:57:08.566Z,17.74
2022-09-01T04:58:10.320Z,18.12
2022-09-01T04:59:08.418Z,18.12
2022-09-01T05:00:08.339Z,18.22
2022-09-01T05:01:08.310Z,18.60
2022-09-01T05:02:08.211Z,18.31
2022-09-01T05:03:08.109Z,18.31
2022-09-01T05:04:08.029Z,18.51
2022-09-01T05:05:07.953Z,18.02
2022-09-01T05:06:07.875Z,18.22
2022-09-01T05:07:07.795Z,18.02
2022-09-01T05:08:07.720Z,17.93
2022-09-01T05:09:07.645Z,18.22
2022-09-01T05:10:07.565Z,18.22
2022-09-01T05:11:07.490Z,17.74
2022-09-01T05:12:07.414Z,17.55
2022-09-01T05:13:07.335Z,17.93
2022-09-01T05:14:07.262Z,17.55
2022-09-01T05:15:07.181Z,18.12
2022-09-01T05:16:07.139Z,18.41
2022-09-01T05:17:07.030Z,18.41
2022-09-01T05:18:06.955Z,18.41
2022-09-01T05:19:06.873Z,18.51
2022-09-01T05:20:06.798Z,19.18
2022-09-01T05:21:06.721Z,19.27
2022-09-01T05:22:06.641Z,19.56
2022-09-01T05:23:06.568Z,20.04
2022-09-01T05:24:06.490Z,20.42
2022-09-01T05:25:06.410Z,20.14
2022-09-01T05:26:06.333Z,20.23
2022-09-01T05:27:06.261Z,20.14
2022-09-01T05:28:06.182Z,20.42
2022-09-01T05:29:06.101Z,20.90
2022-09-01T05:30:06.029Z,21.19
2022-09-01T05:31:05.968Z,21.19
2022-09-01T05:32:05.871Z,21.38
2022-09-01T05:33:05.798Z,22.72
2022-09-01T05:34:05.718Z,22.44
2022-09-01T05:35:05.642Z,22.53
2022-09-01T05:36:05.563Z,22.15
2022-09-01T05:37:05.488Z,22.34
2022-09-01T05:38:05.412Z,22.24
2022-09-01T05:39:05.334Z,22.34
2022-09-01T05:40:05.357Z,22.64
2022-09-01T05:41:05.176Z,22.54
2022-09-01T05:42:05.103Z,22.45
2022-09-01T05:43:05.030Z,22.35
2022-09-01T05:44:04.948Z,22.64
2022-09-01T05:45:04.873Z,23.41
2022-09-01T05:46:07.293Z,23.69
2022-09-01T05:47:04.767Z,23.98
2022-09-01T05:48:04.644Z,24.18
2022-09-01T05:49:04.563Z,24.08
2022-09-01T05:50:04.488Z,24.27
2022-09-01T05:51:04.410Z,25.23
2022-09-01T05:52:04.331Z,26.57
2022-09-01T05:53:04.258Z,25.90
2022-09-01T05:54:04.178Z,25.52
2022-09-01T05:55:04.105Z,26.09
2022-09-01T05:56:04.023Z,25.71
2022-09-01T05:57:17.771Z,25.99
2022-09-01T05:58:03.870Z,26.19
2022-09-01T05:59:33.573Z,27.05
2022-09-01T06:00:03.722Z,27.34
2022-09-01T06:01:03.642Z,27.63
2022-09-01T06:02:03.742Z,27.92
2022-09-01T06:03:03.557Z,28.59
2022-09-01T06:04:03.411Z,29.45
2022-09-01T06:05:03.333Z,29.35
2022-09-01T06:06:03.264Z,28.78
2022-09-01T06:07:05.814Z,28.59
2022-09-01T06:08:03.100Z,29.55
2022-09-01T06:09:03.028Z,29.64
2022-09-01T06:10:02.953Z,29.45
2022-09-01T06:11:02.873Z,29.26
2022-09-01T06:12:02.821Z,29.26
2022-09-01T06:13:02.721Z,30.60
2022-09-01T06:14:02.643Z,30.32
2022-09-01T06:15:02.570Z,30.70
2022-09-01T06:16:02.705Z,30.89
2022-09-01T06:17:02.416Z,32.62
2022-09-01T06:18:02.340Z,31.75
2022-09-01T06:19:02.259Z,31.85
2022-09-01T06:20:02.185Z,32.71
2022-09-01T06:21:02.105Z,33.19
2022-09-01T06:22:02.025Z,33.67
2022-09-01T06:23:01.952Z,33.09
2022-09-01T06:24:01.878Z,32.34
2022-09-01T06:25:02.941Z,31.18
2022-09-01T06:26:01.724Z,31.10
2022-09-01T06:27:01.669Z,31.38
2022-09-01T06:28:01.571Z,32.71
2022-09-01T06:29:01.509Z,32.82
2022-09-01T06:30:01.414Z,33.78
2022-09-01T06:31:01.406Z,39.16
2022-09-01T06:32:01.267Z,43.19
2022-09-01T06:33:01.192Z,43.27
2022-09-01T06:34:01.112Z,42.61
2022-09-01T06:35:01.034Z,42.13
2022-09-01T06:36:00.967Z,42.71
2022-09-01T06:37:00.886Z,40.48
2022-09-01T06:38:00.803Z,41.08
2022-09-01T06:39:00.726Z,40.41
2022-09-01T06:40:00.654Z,42.23
2022-09-01T06:41:00.572Z,44.15
2022-09-01T06:42:00.498Z,42.98
2022-09-01T06:43:00.421Z,43.84
2022-09-01T06:44:00.342Z,44.51
2022-09-01T06:45:00.270Z,46.91
2022-09-01T06:46:00.187Z,46.43
2022-09-01T06:47:00.273Z,46.14
2022-09-01T06:48:00.419Z,46.72
2022-09-01T06:48:59.958Z,46.05
2022-09-01T06:49:59.886Z,46.14
2022-09-01T06:51:17.373Z,44.42
2022-09-01T06:51:59.730Z,43.36
2022-09-01T06:53:59.797Z,46.81
2022-09-01T06:54:59.499Z,46.24
2022-09-01T06:55:59.428Z,45.18
2022-09-01T06:56:59.661Z,44.90
2022-09-01T06:58:07.226Z,45.28
2022-09-01T06:58:59.192Z,43.74
2022-09-01T06:59:59.120Z,44.23
2022-09-01T07:00:59.038Z,43.55
2022-09-01T07:02:02.479Z,45.00
2022-09-01T07:02:58.959Z,46.24
2022-09-01T07:03:58.813Z,47.01
2022-09-01T07:04:58.734Z,46.43
2022-09-01T07:06:00.847Z,46.43
2022-09-01T07:07:00.065Z,46.14
2022-09-01T07:08:06.145Z,46.34
2022-09-01T07:10:17.726Z,47.10
2022-09-01T07:13:05.702Z,44.90
2022-09-01T07:17:22.966Z,46.94
2022-09-01T07:17:57.739Z,48.18
2022-09-01T07:18:58.958Z,46.74
2022-09-01T07:19:57.581Z,46.07
2022-09-01T07:21:35.910Z,45.78
2022-09-01T07:23:05.789Z,46.17
2022-09-01T07:24:12.622Z,47.03
2022-09-01T07:25:11.796Z,50.58
2022-09-01T07:26:04.494Z,49.24
2022-09-01T07:26:57.421Z,48.95
2022-09-01T07:27:57.725Z,50.29
2022-09-01T07:29:56.814Z,51.06
2022-09-01T07:30:56.850Z,49.82
2022-09-01T07:32:56.586Z,54.52
2022-09-01T07:34:37.660Z,52.40
2022-09-01T07:34:56.435Z,51.83
2022-09-01T07:38:47.293Z,51.28
2022-09-01T07:39:56.158Z,50.42
2022-09-01T07:42:31.492Z,45.98
2022-09-01T07:43:55.746Z,52.72
2022-09-01T07:44:55.987Z,53.78
2022-09-01T07:45:59.041Z,51.76
2022-09-01T07:47:55.617Z,52.14
2022-09-01T07:49:28.918Z,52.24
2022-09-01T07:50:25.615Z,54.06
2022-09-01T07:51:55.222Z,55.02
2022-09-01T07:52:55.063Z,55.99
2022-09-01T07:53:54.988Z,53.87
2022-09-01T07:54:54.905Z,55.22
2022-09-01T07:55:54.828Z,55.02
2022-09-01T07:56:54.755Z,54.55
2022-09-01T07:58:01.913Z,53.68
2022-09-01T07:59:59.010Z,57.71
2022-09-01T08:00:58.919Z,57.14
2022-09-01T08:03:03.266Z,57.04
2022-09-01T08:04:03.153Z,57.93
2022-09-01T08:06:07.480Z,58.03
2022-09-01T08:07:07.388Z,58.48
2022-09-01T08:08:18.801Z,60.14
2022-09-01T08:09:07.246Z,59.66
2022-09-01T08:10:07.167Z,60.82
2022-09-01T08:11:07.084Z,63.99
2022-09-01T08:12:07.426Z,63.57
2022-09-01T08:13:06.931Z,62.26
2022-09-01T08:14:06.863Z,63.79
2022-09-01T08:15:38.002Z,61.20
2022-09-01T08:16:08.533Z,65.72
2022-09-01T08:18:06.581Z,60.43
2022-09-01T08:19:16.332Z,59.19
2022-09-01T08:20:06.401Z,60.63
2022-09-01T08:21:06.321Z,61.11
2022-09-01T08:22:06.246Z,60.34
2022-09-01T08:23:06.171Z,62.16
2022-09-01T08:24:06.095Z,60.82
2022-09-01T08:25:06.018Z,60.91
2022-09-01T08:26:05.944Z,60.24
2022-09-01T08:27:05.866Z,61.68
2022-09-01T08:28:05.793Z,66.30
2022-09-01T08:29:05.712Z,65.72
2022-09-01T08:30:05.637Z,64.85
2022-09-01T08:31:10.960Z,66.00
2022-09-01T08:32:05.488Z,67.35
2022-09-01T08:33:12.458Z,66.20
2022-09-01T08:34:05.336Z,66.20
2022-09-01T08:35:05.267Z,63.79
2022-09-01T08:36:05.183Z,63.51
2022-09-01T08:37:05.108Z,64.18
2022-09-01T08:38:05.029Z,64.09
2022-09-01T08:39:05.553Z,65.43
2022-09-01T08:40:04.987Z,66.42
2022-09-01T08:41:04.890Z,65.23
2022-09-01T08:42:04.728Z,66.10
2022-09-01T08:43:04.655Z,65.56
2022-09-01T08:44:04.576Z,63.79
2022-09-01T08:45:04.507Z,63.32
2022-09-01T08:46:04.449Z,64.76
2022-09-01T08:47:04.346Z,64.76
2022-09-01T08:48:37.090Z,66.20
2022-09-01T08:50:06.001Z,67.68
2022-09-01T08:51:07.142Z,68.21
2022-09-01T08:52:03.966Z,67.35
2022-09-01T08:53:11.009Z,66.87
2022-09-01T08:54:03.814Z,68.02
2022-09-01T08:55:03.736Z,66.42
2022-09-01T08:56:03.667Z,66.77
2022-09-01T08:57:03.588Z,66.77
2022-09-01T08:58:03.517Z,69.37
2022-09-01T08:59:03.439Z,67.93
2022-09-01T09:00:03.360Z,66.00
2022-09-01T09:01:03.390Z,67.64
2022-09-01T09:02:03.258Z,67.93
2022-09-01T09:03:03.197Z,69.08
2022-09-01T09:04:03.056Z,66.20
2022-09-01T09:05:15.620Z,62.74
2022-09-01T09:06:02.903Z,63.89
2022-09-01T09:07:02.827Z,63.70
2022-09-01T09:08:09.563Z,65.23
2022-09-01T09:09:02.675Z,66.10
2022-09-01T09:10:02.602Z,66.97
2022-09-01T09:11:02.530Z,64.89
2022-09-01T09:12:02.450Z,70.27
2022-09-01T09:13:02.371Z,72.38
2022-09-01T09:14:02.294Z,71.91
2022-09-01T09:15:02.217Z,71.52
2022-09-01T09:16:09.411Z,74.69
2022-09-01T09:17:02.071Z,73.35
2022-09-01T09:18:01.993Z,69.12
2022-09-01T09:19:01.912Z,66.55
2022-09-01T09:20:01.841Z,67.13
2022-09-01T09:21:01.764Z,69.73
2022-09-01T09:22:02.010Z,71.26
2022-09-01T09:23:02.159Z,69.24
2022-09-01T09:24:01.537Z,70.68
2022-09-01T09:25:01.462Z,75.31
2022-09-01T09:26:01.384Z,78.00
2022-09-01T09:27:01.310Z,76.98
2022-09-01T09:28:01.417Z,76.59
2022-09-01T09:29:01.160Z,76.98
2022-09-01T09:30:07.317Z,76.98
2022-09-01T09:31:01.070Z,78.61
2022-09-01T09:32:01.231Z,80.96
2022-09-01T09:33:46.737Z,83.47
2022-09-01T09:34:00.896Z,81.35
2022-09-01T09:35:00.708Z,81.54
2022-09-01T09:36:00.628Z,81.25
2022-09-01T09:37:00.554Z,76.73
2022-09-01T09:38:00.476Z,79.43
2022-09-01T09:39:01.397Z,81.25
2022-09-01T09:40:00.328Z,79.13
2022-09-01T09:42:00.235Z,81.58
2022-09-01T09:43:01.667Z,83.12
2022-09-01T09:44:00.028Z,85.05
2022-09-01T09:44:59.964Z,86.21
2022-09-01T09:45:59.904Z,89.86
2022-09-01T09:46:59.880Z,88.95
2022-09-01T09:47:59.727Z,90.69
2022-09-01T09:48:59.653Z,87.41
2022-09-01T09:49:59.570Z,87.41
2022-09-01T09:50:59.503Z,90.16
2022-09-01T09:51:59.429Z,89.63
2022-09-01T09:52:59.353Z,88.95
2022-09-01T09:53:59.274Z,93.29
2022-09-01T09:54:59.198Z,90.59
2022-09-01T09:55:59.126Z,91.55
2022-09-01T09:56:59.050Z,94.44
2022-09-01T09:57:58.976Z,91.84
2022-09-01T09:58:58.897Z,91.27
2022-09-01T10:00:01.397Z,88.67
2022-09-01T10:00:58.819Z,86.65
2022-09-01T10:01:58.674Z,87.66
2022-09-01T10:02:58.595Z,85.54
2022-09-01T10:03:58.561Z,90.64
2022-09-01T10:04:58.445Z,93.15
2022-09-01T10:05:58.374Z,91.80
2022-09-01T10:06:58.294Z,91.31
2022-09-01T10:07:58.220Z,89.58
2022-09-01T10:08:58.145Z,86.89
2022-09-01T10:09:58.072Z,91.51
2022-09-01T10:10:58.826Z,89.78
2022-09-01T10:11:57.919Z,89.58
2022-09-01T10:12:57.864Z,88.71
2022-09-01T10:13:57.770Z,86.99
2022-09-01T10:14:57.691Z,92.76
2022-09-01T10:15:57.621Z,93.24
2022-09-01T10:16:57.604Z,93.91
2022-09-01T10:18:57.393Z,91.99
2022-09-01T10:19:57.325Z,94.78
2022-09-01T10:20:57.262Z,96.51
2022-09-01T10:21:57.172Z,94.10
2022-09-01T10:22:57.098Z,90.83
2022-09-01T10:24:16.963Z,90.55
2022-09-01T10:24:56.949Z,91.41
2022-09-01T10:25:56.866Z,93.72
2022-09-01T10:26:56.804Z,94.20
2022-09-01T10:27:58.432Z,91.94
2022-09-01T10:28:56.638Z,96.27
2022-09-01T10:30:12.419Z,94.30
2022-09-01T10:30:56.545Z,93.96
2022-09-01T10:32:28.021Z,94.34
2022-09-01T10:32:58.869Z,92.66
2022-09-01T10:33:58.717Z,93.05
2022-09-01T10:34:59.504Z,91.65
2022-09-01T10:35:56.116Z,92.95
2022-09-01T10:36:57.100Z,94.30
2022-09-01T10:37:58.109Z,95.31
2022-09-01T10:39:00.744Z,90.73
2022-09-01T10:39:55.812Z,93.43
2022-09-01T10:40:55.771Z,92.47
2022-09-01T10:42:00.176Z,88.71
2022-09-01T10:42:55.587Z,95.26
2022-09-01T10:43:59.636Z,93.33
2022-09-01T10:44:55.441Z,94.49
2022-09-01T10:45:58.856Z,93.43
2022-09-01T10:46:59.963Z,93.53
2022-09-01T10:47:55.213Z,90.73
2022-09-01T10:48:55.750Z,91.22
2022-09-01T10:49:55.061Z,92.66
2022-09-01T10:50:54.988Z,92.18
2022-09-01T10:51:56.463Z,93.91
2022-09-01T10:52:54.838Z,93.33
2022-09-01T10:53:54.764Z,95.36
2022-09-01T10:54:55.814Z,94.10
2022-09-01T10:55:58.354Z,93.91
2022-09-01T10:56:54.534Z,97.96
2022-09-01T10:57:54.470Z,99.99
2022-09-01T10:59:56.419Z,96.70
2022-09-01T11:02:22.936Z,98.82
2022-09-01T11:02:54.117Z,98.05
2022-09-01T11:03:56.256Z,94.49
2022-09-01T11:04:53.956Z,96.70
2022-09-01T11:06:11.033Z,97.38
2022-09-01T11:08:01.794Z,99.59
2022-09-01T11:08:53.632Z,97.86
2022-09-01T11:09:57.415Z,97.67
2022-09-01T11:10:53.487Z,96.89
2022-09-01T11:11:53.409Z,94.78
2022-09-01T11:12:53.335Z,95.17
2022-09-01T11:13:53.252Z,95.50
2022-09-01T11:14:53.177Z,93.48
2022-09-01T11:15:53.105Z,99.99
2022-09-01T11:16:53.098Z,98.00
2022-09-01T11:17:52.956Z,99.99
2022-09-01T11:18:52.879Z,99.16
2022-09-01T11:19:52.804Z,99.99
2022-09-01T11:20:52.731Z,99.99
2022-09-01T11:21:52.655Z,99.99
2022-09-01T11:22:52.861Z,99.99
2022-09-01T11:23:52.771Z,99.99
2022-09-01T11:25:00.187Z,98.63
2022-09-01T11:26:21.503Z,99.99
2022-09-01T11:26:52.279Z,99.99
2022-09-01T11:27:52.222Z,99.99
2022-09-01T11:28:52.134Z,99.99
2022-09-01T11:29:52.057Z,99.99
2022-09-01T11:30:51.991Z,99.99
2022-09-01T11:31:51.990Z,99.99
2022-09-01T11:32:51.830Z,99.99
2022-09-01T11:33:51.775Z,99.99
2022-09-01T11:34:51.682Z,99.99
2022-09-01T11:35:51.602Z,99.99
2022-09-01T11:36:51.942Z,99.99
2022-09-01T11:37:51.455Z,99.99
2022-09-01T11:38:51.382Z,99.99
2022-09-01T11:39:51.307Z,99.99
2022-09-01T11:40:51.271Z,99.99
2022-09-01T11:41:55.802Z,99.99
2022-09-01T11:42:51.083Z,99.99
2022-09-01T11:43:51.012Z,99.99
2022-09-01T11:44:50.938Z,99.99
2022-09-01T11:45:50.962Z,99.99
2022-09-01T11:46:50.784Z,99.99
2022-09-01T11:47:50.718Z,99.79
2022-09-01T11:48:52.142Z,95.78
2022-09-01T11:49:50.568Z,92.59
2022-09-01T11:50:50.490Z,86.69
2022-09-01T11:51:50.421Z,89.17
2022-09-01T11:52:50.346Z,87.33
2022-09-01T11:53:50.276Z,85.40
2022-09-01T11:54:50.199Z,86.99
2022-09-01T11:55:50.118Z,88.53
2022-09-01T11:56:50.050Z,94.24
2022-09-01T11:57:49.975Z,98.20
2022-09-01T11:58:49.903Z,96.56
2022-09-01T11:59:49.835Z,95.10
2022-09-01T12:00:49.757Z,88.63
2022-09-01T12:01:49.785Z,97.72
2022-09-01T12:02:49.744Z,89.98
2022-09-01T12:03:49.539Z,90.80
2022-09-01T12:04:49.466Z,92.16
2022-09-01T12:05:49.398Z,89.39
2022-09-01T12:06:49.317Z,91.91
2022-09-01T12:07:49.251Z,98.15
2022-09-01T12:08:49.173Z,90.26
2022-09-01T12:09:49.099Z,92.77
2022-09-01T12:10:49.026Z,88.84
2022-09-01T12:11:48.956Z,85.14
2022-09-01T12:12:48.880Z,76.67
2022-09-01T12:13:48.806Z,72.86
2022-09-01T12:15:04.777Z,70.23
2022-09-01T12:16:14.017Z,64.94
2022-09-01T12:16:48.604Z,65.33
2022-09-01T12:17:48.522Z,62.04
2022-09-01T12:18:48.453Z,57.11
2022-09-01T12:19:48.375Z,58.54
2022-09-01T12:21:49.433Z,57.06
2022-09-01T12:22:48.165Z,57.40
2022-09-01T12:23:48.121Z,57.04
2022-09-01T12:24:48.026Z,55.03
2022-09-01T12:25:47.955Z,54.20
2022-09-01T12:26:47.909Z,51.79
2022-09-01T12:27:47.823Z,49.77
2022-09-01T12:28:47.747Z,48.12
2022-09-01T12:29:47.680Z,48.34
2022-09-01T12:30:47.621Z,44.64
2022-09-01T12:31:47.606Z,45.16
2022-09-01T12:32:47.480Z,44.48
2022-09-01T12:33:47.415Z,45.70
2022-09-01T12:34:47.351Z,47.79
2022-09-01T12:35:47.283Z,47.52
2022-09-01T12:37:47.163Z,51.93
2022-09-01T12:38:47.080Z,53.15
2022-09-01T12:39:47.020Z,53.52
2022-09-01T12:40:47.429Z,53.24
2022-09-01T12:41:47.216Z,54.77
2022-09-01T12:42:46.811Z,56.47
2022-09-01T12:43:49.662Z,58.00
2022-09-01T12:44:46.679Z,58.36
2022-09-01T12:45:46.670Z,59.21
2022-09-01T12:46:47.295Z,60.18
2022-09-01T12:47:46.471Z,60.28
2022-09-01T12:48:46.621Z,61.15
2022-09-01T12:49:50.828Z,60.77
2022-09-01T12:50:46.273Z,57.72
2022-09-01T12:51:46.204Z,59.18
2022-09-01T12:52:46.128Z,61.09
2022-09-01T12:53:46.063Z,59.90
2022-09-01T12:54:45.992Z,60.97
2022-09-01T12:55:49.012Z,61.61
2022-09-01T12:56:45.869Z,62.75
2022-09-01T12:57:45.785Z,64.07
2022-09-01T12:58:45.722Z,64.85
2022-09-01T12:59:45.645Z,65.34
2022-09-01T13:00:45.616Z,64.27
2022-09-01T13:01:45.686Z,64.53
2022-09-01T13:02:45.599Z,65.20
2022-09-01T13:03:45.371Z,66.24
2022-09-01T13:04:45.300Z,66.05
2022-09-01T13:05:45.230Z,67.56
2022-09-01T13:06:45.158Z,69.01
2022-09-01T13:07:45.090Z,66.37
2022-09-01T13:08:46.192Z,67.43
2022-09-01T13:09:45.923Z,69.37
2022-09-01T13:10:44.885Z,68.40
2022-09-01T13:12:44.735Z,70.59
2022-09-01T13:13:44.661Z,71.75
2022-09-01T13:14:44.595Z,73.59
2022-09-01T13:15:44.526Z,70.68
2022-09-01T13:16:44.489Z,70.20
2022-09-01T13:17:44.387Z,68.91
2022-09-01T13:19:44.239Z,71.62
2022-09-01T13:20:44.167Z,72.97
2022-09-01T13:21:44.098Z,73.46
2022-09-01T13:22:44.027Z,75.16
2022-09-01T13:23:43.951Z,79.12